sensor_id;sensor_type;location;lat;lon;timestamp;pressure;altitude;pressure_sealevel;temperature;humidity
23321;BME280;33376;51.306;4.752;2023-06-05T00:01:23;102442.19;;;13.63;100.00
23321;BME280;33376;51.306;4.752;2023-06-05T00:03:48;102442.59;;;13.54;100.00
23321;BME280;33376;51.306;4.752;2023-06-05T00:06:13;102440.06;;;13.51;100.00
23321;BME280;33376;51.306;4.752;2023-06-05T00:08:39;102434.16;;;13.43;100.00
23321;BME280;33376;51.306;4.752;2023-06-05T00:11:04;102420.03;;;13.41;100.00
23321;BME280;33376;51.306;4.752;2023-06-05T00:13:29;102409.44;;;13.40;100.00
23321;BME280;33376;51.306;4.752;2023-06-05T00:15:55;102408.69;;;13.36;100.00
23321;BME280;33376;51.306;4.752;2023-06-05T00:18:21;102400.91;;;13.32;100.00
23321;BME280;33376;51.306;4.752;2023-06-05T00:20:47;102402.94;;;13.25;100.00
23321;BME280;33376;51.306;4.752;2023-06-05T00:23:12;102392.53;;;13.19;100.00
23321;BME280;33376;51.306;4.752;2023-06-05T00:25:38;102385.53;;;13.16;100.00
23321;BME280;33376;51.306;4.752;2023-06-05T00:28:03;102388.94;;;13.20;100.00
23321;BME280;33376;51.306;4.752;2023-06-05T00:30:29;102384.75;;;13.14;100.00
23321;BME280;33376;51.306;4.752;2023-06-05T00:32:55;102375.19;;;13.09;100.00
23321;BME280;33376;51.306;4.752;2023-06-05T00:35:20;102376.06;;;13.09;100.00
23321;BME280;33376;51.306;4.752;2023-06-05T00:37:45;102374.38;;;13.07;100.00
23321;BME280;33376;51.306;4.752;2023-06-05T00:40:12;102376.19;;;13.06;100.00
23321;BME280;33376;51.306;4.752;2023-06-05T00:42:37;102369.59;;;12.93;100.00
23321;BME280;33376;51.306;4.752;2023-06-05T00:45:02;102361.47;;;12.96;100.00
23321;BME280;33376;51.306;4.752;2023-06-05T00:47:28;102358.25;;;12.88;100.00
23321;BME280;33376;51.306;4.752;2023-06-05T00:49:53;102361.16;;;12.82;100.00
23321;BME280;33376;51.306;4.752;2023-06-05T00:52:19;102359.47;;;12.80;100.00
23321;BME280;33376;51.306;4.752;2023-06-05T00:54:44;102347.13;;;12.79;100.00
23321;BME280;33376;51.306;4.752;2023-06-05T00:57:10;102342.88;;;12.73;100.00
23321;BME280;33376;51.306;4.752;2023-06-05T00:59:36;102343.69;;;12.75;100.00
23321;BME280;33376;51.306;4.752;2023-06-05T01:02:01;102347.56;;;12.68;100.00
23321;BME280;33376;51.306;4.752;2023-06-05T01:04:28;102317.53;;;12.65;100.00
23321;BME280;33376;51.306;4.752;2023-06-05T01:06:53;102331.09;;;12.57;100.00
23321;BME280;33376;51.306;4.752;2023-06-05T01:09:19;102329.56;;;12.52;100.00
23321;BME280;33376;51.306;4.752;2023-06-05T01:11:52;102327.41;;;12.61;100.00
23321;BME280;33376;51.306;4.752;2023-06-05T01:14:19;102316.47;;;12.47;100.00
23321;BME280;33376;51.306;4.752;2023-06-05T01:16:48;102319.31;;;12.43;100.00
23321;BME280;33376;51.306;4.752;2023-06-05T01:19:14;102311.31;;;12.43;100.00
23321;BME280;33376;51.306;4.752;2023-06-05T01:21:40;102312.09;;;12.45;100.00
23321;BME280;33376;51.306;4.752;2023-06-05T01:24:05;102301.53;;;12.43;100.00
23321;BME280;33376;51.306;4.752;2023-06-05T01:26:36;102298.22;;;12.37;100.00
23321;BME280;33376;51.306;4.752;2023-06-05T01:29:06;102290.38;;;12.34;100.00
23321;BME280;33376;51.306;4.752;2023-06-05T01:31:35;102291.72;;;12.22;100.00
23321;BME280;33376;51.306;4.752;2023-06-05T01:34:02;102291.16;;;12.14;100.00
23321;BME280;33376;51.306;4.752;2023-06-05T01:36:30;102285.47;;;12.23;100.00
23321;BME280;33376;51.306;4.752;2023-06-05T01:38:57;102274.09;;;12.20;100.00
23321;BME280;33376;51.306;4.752;2023-06-05T01:41:23;102273.09;;;12.22;100.00
23321;BME280;33376;51.306;4.752;2023-06-05T01:43:50;102276.25;;;12.10;100.00
23321;BME280;33376;51.306;4.752;2023-06-05T01:46:17;102287.75;;;12.11;100.00
23321;BME280;33376;51.306;4.752;2023-06-05T01:48:43;102287.63;;;12.14;100.00
23321;BME280;33376;51.306;4.752;2023-06-05T01:51:08;102277.19;;;12.09;100.00
23321;BME280;33376;51.306;4.752;2023-06-05T01:53:33;102281.03;;;12.01;100.00
23321;BME280;33376;51.306;4.752;2023-06-05T01:55:59;102269.53;;;12.00;100.00
23321;BME280;33376;51.306;4.752;2023-06-05T01:58:25;102265.25;;;11.96;100.00
23321;BME280;33376;51.306;4.752;2023-06-05T02:00:51;102257.34;;;11.95;100.00
23321;BME280;33376;51.306;4.752;2023-06-05T02:03:17;102260.34;;;11.86;100.00
23321;BME280;33376;51.306;4.752;2023-06-05T02:05:43;102254.00;;;11.90;100.00
23321;BME280;33376;51.306;4.752;2023-06-05T02:08:08;102244.50;;;11.82;100.00
23321;BME280;33376;51.306;4.752;2023-06-05T02:10:35;102229.25;;;11.88;100.00
23321;BME280;33376;51.306;4.752;2023-06-05T02:13:02;102238.28;;;11.84;100.00
23321;BME280;33376;51.306;4.752;2023-06-05T02:15:28;102232.16;;;11.82;100.00
23321;BME280;33376;51.306;4.752;2023-06-05T02:17:57;102224.00;;;11.86;100.00
23321;BME280;33376;51.306;4.752;2023-06-05T02:20:26;102216.44;;;11.75;100.00
23321;BME280;33376;51.306;4.752;2023-06-05T02:22:51;102204.06;;;11.74;100.00
23321;BME280;33376;51.306;4.752;2023-06-05T02:25:17;102206.09;;;11.68;100.00
23321;BME280;33376;51.306;4.752;2023-06-05T02:27:43;102196.53;;;11.62;100.00
23321;BME280;33376;51.306;4.752;2023-06-05T02:30:08;102192.00;;;11.66;100.00
23321;BME280;33376;51.306;4.752;2023-06-05T02:32:33;102195.44;;;11.68;100.00
23321;BME280;33376;51.306;4.752;2023-06-05T02:34:58;102189.75;;;11.54;100.00
23321;BME280;33376;51.306;4.752;2023-06-05T02:37:24;102178.00;;;11.61;100.00
23321;BME280;33376;51.306;4.752;2023-06-05T02:39:50;102177.13;;;11.60;100.00
23321;BME280;33376;51.306;4.752;2023-06-05T02:42:15;102175.06;;;11.45;100.00
23321;BME280;33376;51.306;4.752;2023-06-05T02:44:41;102168.09;;;11.41;100.00
23321;BME280;33376;51.306;4.752;2023-06-05T02:47:07;102159.91;;;11.47;100.00
23321;BME280;33376;51.306;4.752;2023-06-05T02:49:32;102151.94;;;11.47;100.00
23321;BME280;33376;51.306;4.752;2023-06-05T02:51:58;102139.66;;;11.45;100.00
23321;BME280;33376;51.306;4.752;2023-06-05T02:54:23;102131.25;;;11.55;100.00
23321;BME280;33376;51.306;4.752;2023-06-05T02:56:48;102140.53;;;11.45;100.00
23321;BME280;33376;51.306;4.752;2023-06-05T02:59:14;102130.09;;;11.39;100.00
23321;BME280;33376;51.306;4.752;2023-06-05T03:01:40;102128.28;;;11.41;100.00
23321;BME280;33376;51.306;4.752;2023-06-05T03:04:08;102121.50;;;11.33;100.00
23321;BME280;33376;51.306;4.752;2023-06-05T03:06:34;102113.59;;;11.31;100.00
23321;BME280;33376;51.306;4.752;2023-06-05T03:09:00;102113.25;;;11.17;100.00
23321;BME280;33376;51.306;4.752;2023-06-05T03:11:25;102109.22;;;11.30;100.00
23321;BME280;33376;51.306;4.752;2023-06-05T03:13:51;102108.41;;;11.28;100.00
23321;BME280;33376;51.306;4.752;2023-06-05T03:16:17;102099.97;;;11.17;100.00
23321;BME280;33376;51.306;4.752;2023-06-05T03:18:42;102098.06;;;11.21;100.00
23321;BME280;33376;51.306;4.752;2023-06-05T03:21:08;102084.34;;;11.10;100.00
23321;BME280;33376;51.306;4.752;2023-06-05T03:23:35;102072.84;;;11.09;100.00
23321;BME280;33376;51.306;4.752;2023-06-05T03:26:00;102066.06;;;11.02;100.00
23321;BME280;33376;51.306;4.752;2023-06-05T03:28:27;102063.16;;;11.08;100.00
23321;BME280;33376;51.306;4.752;2023-06-05T03:30:52;102072.44;;;10.97;100.00
23321;BME280;33376;51.306;4.752;2023-06-05T03:33:17;102068.13;;;10.94;100.00
23321;BME280;33376;51.306;4.752;2023-06-05T03:35:43;102057.44;;;10.96;100.00
23321;BME280;33376;51.306;4.752;2023-06-05T03:38:17;102057.63;;;10.91;100.00
23321;BME280;33376;51.306;4.752;2023-06-05T03:40:46;102055.94;;;10.89;100.00
23321;BME280;33376;51.306;4.752;2023-06-05T03:43:11;102030.38;;;10.86;100.00
23321;BME280;33376;51.306;4.752;2023-06-05T03:45:37;102095.84;;;10.86;100.00
23321;BME280;33376;51.306;4.752;2023-06-05T03:48:05;102040.66;;;10.95;100.00
23321;BME280;33376;51.306;4.752;2023-06-05T03:50:31;102048.09;;;10.86;100.00
23321;BME280;33376;51.306;4.752;2023-06-05T03:53:04;102044.78;;;10.79;100.00
23321;BME280;33376;51.306;4.752;2023-06-05T03:55:39;102040.34;;;10.80;100.00
23321;BME280;33376;51.306;4.752;2023-06-05T03:58:10;102041.44;;;10.74;100.00
23321;BME280;33376;51.306;4.752;2023-06-05T04:00:43;102036.81;;;10.79;100.00
23321;BME280;33376;51.306;4.752;2023-06-05T04:03:09;102027.94;;;10.80;100.00
23321;BME280;33376;51.306;4.752;2023-06-05T04:05:36;102024.97;;;10.89;100.00
23321;BME280;33376;51.306;4.752;2023-06-05T04:08:01;102026.09;;;10.82;100.00
23321;BME280;33376;51.306;4.752;2023-06-05T04:10:27;102025.09;;;10.86;100.00
23321;BME280;33376;51.306;4.752;2023-06-05T04:12:52;102020.63;;;10.87;100.00
23321;BME280;33376;51.306;4.752;2023-06-05T04:15:18;102023.06;;;10.93;100.00
23321;BME280;33376;51.306;4.752;2023-06-05T04:17:43;102020.28;;;10.96;100.00
23321;BME280;33376;51.306;4.752;2023-06-05T04:20:08;102027.38;;;10.95;100.00
23321;BME280;33376;51.306;4.752;2023-06-05T04:22:41;102027.31;;;10.97;100.00
23321;BME280;33376;51.306;4.752;2023-06-05T04:25:07;102020.00;;;11.03;100.00
23321;BME280;33376;51.306;4.752;2023-06-05T04:27:34;102015.56;;;11.04;100.00
23321;BME280;33376;51.306;4.752;2023-06-05T04:30:00;102012.72;;;11.08;100.00
23321;BME280;33376;51.306;4.752;2023-06-05T04:32:26;102007.25;;;11.13;100.00
23321;BME280;33376;51.306;4.752;2023-06-05T04:34:51;102012.38;;;11.17;100.00
23321;BME280;33376;51.306;4.752;2023-06-05T04:37:17;102013.31;;;11.16;100.00
23321;BME280;33376;51.306;4.752;2023-06-05T04:39:42;102012.75;;;11.30;100.00
23321;BME280;33376;51.306;4.752;2023-06-05T04:42:08;102009.81;;;11.37;100.00
23321;BME280;33376;51.306;4.752;2023-06-05T04:44:34;102001.84;;;11.37;100.00
23321;BME280;33376;51.306;4.752;2023-06-05T04:46:59;102006.41;;;11.55;100.00
23321;BME280;33376;51.306;4.752;2023-06-05T04:49:25;102001.91;;;11.57;100.00
23321;BME280;33376;51.306;4.752;2023-06-05T04:51:51;101997.69;;;11.75;100.00
23321;BME280;33376;51.306;4.752;2023-06-05T04:54:18;101982.50;;;11.99;100.00
23321;BME280;33376;51.306;4.752;2023-06-05T04:56:43;101989.78;;;11.94;100.00
23321;BME280;33376;51.306;4.752;2023-06-05T04:59:10;101993.66;;;11.87;100.00
23321;BME280;33376;51.306;4.752;2023-06-05T05:01:35;101980.38;;;12.07;100.00
23321;BME280;33376;51.306;4.752;2023-06-05T05:04:07;101979.63;;;12.03;100.00
23321;BME280;33376;51.306;4.752;2023-06-05T05:06:32;101978.88;;;12.21;100.00
23321;BME280;33376;51.306;4.752;2023-06-05T05:08:58;101979.72;;;12.42;100.00
23321;BME280;33376;51.306;4.752;2023-06-05T05:11:24;101972.97;;;12.35;100.00
23321;BME280;33376;51.306;4.752;2023-06-05T05:13:51;101979.31;;;12.51;100.00
23321;BME280;33376;51.306;4.752;2023-06-05T05:16:16;101982.50;;;12.59;100.00
23321;BME280;33376;51.306;4.752;2023-06-05T05:18:42;101983.72;;;12.70;100.00
23321;BME280;33376;51.306;4.752;2023-06-05T05:21:08;101961.72;;;13.60;100.00
23321;BME280;33376;51.306;4.752;2023-06-05T05:23:33;101961.97;;;14.57;100.00
23321;BME280;33376;51.306;4.752;2023-06-05T05:26:01;101977.34;;;15.64;100.00
23321;BME280;33376;51.306;4.752;2023-06-05T05:28:27;102043.84;;;15.39;100.00
23321;BME280;33376;51.306;4.752;2023-06-05T05:30:53;102064.69;;;16.56;100.00
23321;BME280;33376;51.306;4.752;2023-06-05T05:33:19;102101.31;;;16.99;100.00
23321;BME280;33376;51.306;4.752;2023-06-05T05:35:46;102124.31;;;17.59;100.00
23321;BME280;33376;51.306;4.752;2023-06-05T05:38:11;102169.41;;;17.38;100.00
23321;BME280;33376;51.306;4.752;2023-06-05T05:40:36;102203.22;;;16.97;100.00
23321;BME280;33376;51.306;4.752;2023-06-05T05:43:01;102214.66;;;17.73;100.00
23321;BME280;33376;51.306;4.752;2023-06-05T05:45:27;102242.41;;;17.43;100.00
23321;BME280;33376;51.306;4.752;2023-06-05T05:47:52;102250.03;;;17.93;100.00
23321;BME280;33376;51.306;4.752;2023-06-05T05:50:17;102232.41;;;18.97;100.00
23321;BME280;33376;51.306;4.752;2023-06-05T05:52:42;102215.09;;;18.62;100.00
23321;BME280;33376;51.306;4.752;2023-06-05T05:55:12;102202.09;;;18.68;100.00
23321;BME280;33376;51.306;4.752;2023-06-05T05:57:37;102202.19;;;18.93;100.00
23321;BME280;33376;51.306;4.752;2023-06-05T06:00:03;102217.09;;;18.46;100.00
23321;BME280;33376;51.306;4.752;2023-06-05T06:02:32;102222.03;;;18.52;100.00
23321;BME280;33376;51.306;4.752;2023-06-05T06:04:58;102219.31;;;19.05;100.00
23321;BME280;33376;51.306;4.752;2023-06-05T06:07:24;102217.59;;;19.17;100.00
23321;BME280;33376;51.306;4.752;2023-06-05T06:09:50;102201.94;;;19.48;100.00
23321;BME280;33376;51.306;4.752;2023-06-05T06:12:16;102200.41;;;19.94;100.00
23321;BME280;33376;51.306;4.752;2023-06-05T06:14:41;102183.97;;;19.61;100.00
23321;BME280;33376;51.306;4.752;2023-06-05T06:17:07;102141.28;;;20.87;100.00
23321;BME280;33376;51.306;4.752;2023-06-05T06:19:35;102104.44;;;19.93;100.00
23321;BME280;33376;51.306;4.752;2023-06-05T06:22:00;102136.41;;;19.24;100.00
23321;BME280;33376;51.306;4.752;2023-06-05T06:24:25;102172.59;;;19.58;100.00
23321;BME280;33376;51.306;4.752;2023-06-05T06:26:51;102190.13;;;19.38;100.00
23321;BME280;33376;51.306;4.752;2023-06-05T06:29:20;102147.38;;;20.44;100.00
23321;BME280;33376;51.306;4.752;2023-06-05T06:31:46;102145.16;;;19.40;100.00
23321;BME280;33376;51.306;4.752;2023-06-05T06:34:11;102158.34;;;19.31;100.00
23321;BME280;33376;51.306;4.752;2023-06-05T06:36:37;102149.53;;;19.66;100.00
23321;BME280;33376;51.306;4.752;2023-06-05T06:39:08;102159.75;;;19.49;100.00
23321;BME280;33376;51.306;4.752;2023-06-05T06:41:34;102085.16;;;20.47;100.00
23321;BME280;33376;51.306;4.752;2023-06-05T06:44:00;102027.59;;;21.15;100.00
23321;BME280;33376;51.306;4.752;2023-06-05T06:46:25;102075.00;;;20.03;100.00
23321;BME280;33376;51.306;4.752;2023-06-05T06:48:50;102107.31;;;20.03;100.00
23321;BME280;33376;51.306;4.752;2023-06-05T06:51:16;102124.56;;;20.00;100.00
23321;BME280;33376;51.306;4.752;2023-06-05T06:53:42;102038.97;;;21.08;100.00
23321;BME280;33376;51.306;4.752;2023-06-05T06:56:07;102035.31;;;21.09;100.00
23321;BME280;33376;51.306;4.752;2023-06-05T06:58:33;101983.91;;;21.97;100.00
23321;BME280;33376;51.306;4.752;2023-06-05T07:00:58;102005.66;;;20.98;100.00
23321;BME280;33376;51.306;4.752;2023-06-05T07:03:25;101965.94;;;21.76;100.00
23321;BME280;33376;51.306;4.752;2023-06-05T07:05:50;101961.41;;;21.76;100.00
23321;BME280;33376;51.306;4.752;2023-06-05T07:08:16;101961.34;;;21.44;100.00
23321;BME280;33376;51.306;4.752;2023-06-05T07:10:41;101929.66;;;22.51;100.00
23321;BME280;33376;51.306;4.752;2023-06-05T07:13:07;101884.31;;;22.84;100.00
23321;BME280;33376;51.306;4.752;2023-06-05T07:15:32;101937.56;;;21.81;100.00
23321;BME280;33376;51.306;4.752;2023-06-05T07:17:57;101945.78;;;22.11;100.00
23321;BME280;33376;51.306;4.752;2023-06-05T07:20:23;101935.84;;;21.80;100.00
23321;BME280;33376;51.306;4.752;2023-06-05T07:22:48;101953.28;;;22.28;100.00
23321;BME280;33376;51.306;4.752;2023-06-05T07:25:13;101886.63;;;22.59;100.00
23321;BME280;33376;51.306;4.752;2023-06-05T07:27:40;101819.81;;;22.50;100.00
23321;BME280;33376;51.306;4.752;2023-06-05T07:30:06;101803.88;;;22.77;100.00
23321;BME280;33376;51.306;4.752;2023-06-05T07:32:31;101804.47;;;23.09;100.00
23321;BME280;33376;51.306;4.752;2023-06-05T07:34:57;101719.59;;;24.04;100.00
23321;BME280;33376;51.306;4.752;2023-06-05T07:39:47;101654.41;;;25.38;100.00
23321;BME280;33376;51.306;4.752;2023-06-05T07:42:15;101705.22;;;23.19;100.00
23321;BME280;33376;51.306;4.752;2023-06-05T07:44:40;101673.38;;;24.77;100.00
23321;BME280;33376;51.306;4.752;2023-06-05T07:47:05;101609.34;;;25.27;100.00
23321;BME280;33376;51.306;4.752;2023-06-05T07:49:31;101732.66;;;24.18;100.00
23321;BME280;33376;51.306;4.752;2023-06-05T07:51:59;101716.34;;;24.00;100.00
23321;BME280;33376;51.306;4.752;2023-06-05T07:54:24;101686.63;;;24.35;100.00
23321;BME280;33376;51.306;4.752;2023-06-05T07:56:50;101669.78;;;24.94;100.00
23321;BME280;33376;51.306;4.752;2023-06-05T07:59:19;101653.03;;;25.16;100.00
23321;BME280;33376;51.306;4.752;2023-06-05T08:01:49;101784.28;;;22.15;100.00
23321;BME280;33376;51.306;4.752;2023-06-05T08:04:15;101770.19;;;24.13;100.00
23321;BME280;33376;51.306;4.752;2023-06-05T08:06:41;101652.41;;;24.52;100.00
23321;BME280;33376;51.306;4.752;2023-06-05T08:09:07;101640.50;;;24.98;100.00
23321;BME280;33376;51.306;4.752;2023-06-05T08:11:34;101598.75;;;26.17;100.00
23321;BME280;33376;51.306;4.752;2023-06-05T08:14:01;101464.34;;;26.52;100.00
23321;BME280;33376;51.306;4.752;2023-06-05T08:16:28;101532.38;;;26.44;100.00
23321;BME280;33376;51.306;4.752;2023-06-05T08:18:54;101544.00;;;25.54;100.00
23321;BME280;33376;51.306;4.752;2023-06-05T08:21:20;101630.09;;;24.58;100.00
23321;BME280;33376;51.306;4.752;2023-06-05T08:23:45;101590.97;;;24.78;100.00
23321;BME280;33376;51.306;4.752;2023-06-05T08:26:10;101687.66;;;24.34;100.00
23321;BME280;33376;51.306;4.752;2023-06-05T08:28:39;101622.41;;;25.83;100.00
23321;BME280;33376;51.306;4.752;2023-06-05T08:31:05;101640.50;;;24.80;100.00
23321;BME280;33376;51.306;4.752;2023-06-05T08:33:31;101692.69;;;24.74;100.00
23321;BME280;33376;51.306;4.752;2023-06-05T08:35:56;101610.09;;;24.94;100.00
23321;BME280;33376;51.306;4.752;2023-06-05T08:38:21;101678.84;;;24.23;100.00
23321;BME280;33376;51.306;4.752;2023-06-05T08:40:47;101532.00;;;26.23;100.00
23321;BME280;33376;51.306;4.752;2023-06-05T08:43:16;101507.69;;;25.63;100.00
23321;BME280;33376;51.306;4.752;2023-06-05T08:45:41;101496.50;;;26.32;100.00
23321;BME280;33376;51.306;4.752;2023-06-05T08:48:06;101406.59;;;27.43;100.00
23321;BME280;33376;51.306;4.752;2023-06-05T08:50:36;101520.94;;;25.66;100.00
23321;BME280;33376;51.306;4.752;2023-06-05T08:53:02;101521.66;;;26.34;100.00
23321;BME280;33376;51.306;4.752;2023-06-05T08:55:27;101581.59;;;24.90;100.00
23321;BME280;33376;51.306;4.752;2023-06-05T08:57:53;101579.84;;;25.66;100.00
23321;BME280;33376;51.306;4.752;2023-06-05T09:00:18;101550.88;;;25.74;100.00
23321;BME280;33376;51.306;4.752;2023-06-05T09:02:44;101541.38;;;25.78;100.00
23321;BME280;33376;51.306;4.752;2023-06-05T09:05:12;101605.97;;;25.33;100.00
23321;BME280;33376;51.306;4.752;2023-06-05T09:07:37;101573.63;;;25.73;100.00
23321;BME280;33376;51.306;4.752;2023-06-05T09:10:03;101590.34;;;25.02;100.00
23321;BME280;33376;51.306;4.752;2023-06-05T09:12:28;101592.47;;;26.09;100.00
23321;BME280;33376;51.306;4.752;2023-06-05T09:14:54;101591.91;;;25.63;100.00
23321;BME280;33376;51.306;4.752;2023-06-05T09:17:20;101487.13;;;26.19;100.00
23321;BME280;33376;51.306;4.752;2023-06-05T09:19:46;101537.22;;;25.58;100.00
23321;BME280;33376;51.306;4.752;2023-06-05T09:22:12;101551.56;;;25.76;100.00
23321;BME280;33376;51.306;4.752;2023-06-05T09:24:38;101543.84;;;25.56;100.00
23321;BME280;33376;51.306;4.752;2023-06-05T09:27:06;101413.72;;;27.52;100.00
23321;BME280;33376;51.306;4.752;2023-06-05T09:29:34;101465.22;;;25.13;100.00
23321;BME280;33376;51.306;4.752;2023-06-05T09:32:18;101463.69;;;26.66;100.00
23321;BME280;33376;51.306;4.752;2023-06-05T09:34:44;101490.19;;;26.48;100.00
23321;BME280;33376;51.306;4.752;2023-06-05T09:37:11;101432.66;;;26.91;100.00
23321;BME280;33376;51.306;4.752;2023-06-05T09:39:37;101505.81;;;26.30;100.00
23321;BME280;33376;51.306;4.752;2023-06-05T09:42:03;101511.09;;;25.57;100.00
23321;BME280;33376;51.306;4.752;2023-06-05T09:44:29;101473.53;;;26.27;100.00
23321;BME280;33376;51.306;4.752;2023-06-05T09:47:07;101403.63;;;26.59;100.00
23321;BME280;33376;51.306;4.752;2023-06-05T09:52:06;101396.00;;;27.09;100.00
23321;BME280;33376;51.306;4.752;2023-06-05T09:54:32;101383.50;;;27.31;100.00
23321;BME280;33376;51.306;4.752;2023-06-05T09:57:05;101397.09;;;26.92;100.00
23321;BME280;33376;51.306;4.752;2023-06-05T09:59:34;101425.13;;;27.09;100.00
23321;BME280;33376;51.306;4.752;2023-06-05T10:02:03;101412.44;;;27.32;100.00
23321;BME280;33376;51.306;4.752;2023-06-05T10:04:29;101474.56;;;26.26;100.00
23321;BME280;33376;51.306;4.752;2023-06-05T10:07:00;101348.13;;;27.76;100.00
23321;BME280;33376;51.306;4.752;2023-06-05T10:09:26;101282.63;;;28.36;100.00
23321;BME280;33376;51.306;4.752;2023-06-05T10:11:53;101276.63;;;28.55;100.00
23321;BME280;33376;51.306;4.752;2023-06-05T10:14:20;101324.91;;;27.80;100.00
23321;BME280;33376;51.306;4.752;2023-06-05T10:16:48;101405.56;;;27.05;100.00
23321;BME280;33376;51.306;4.752;2023-06-05T10:19:14;101474.56;;;26.42;100.00
23321;BME280;33376;51.306;4.752;2023-06-05T10:21:40;101512.69;;;25.84;100.00
23321;BME280;33376;51.306;4.752;2023-06-05T10:24:06;101601.91;;;25.12;100.00
23321;BME280;33376;51.306;4.752;2023-06-05T10:31:57;101550.84;;;26.16;100.00
23321;BME280;33376;51.306;4.752;2023-06-05T10:34:28;101510.59;;;26.20;100.00
23321;BME280;33376;51.306;4.752;2023-06-05T10:39:23;101535.91;;;26.28;100.00
23321;BME280;33376;51.306;4.752;2023-06-05T10:41:50;101561.13;;;25.29;100.00
23321;BME280;33376;51.306;4.752;2023-06-05T10:44:16;101485.41;;;26.10;100.00
23321;BME280;33376;51.306;4.752;2023-06-05T10:46:41;101521.19;;;25.81;100.00
23321;BME280;33376;51.306;4.752;2023-06-05T10:54:07;101440.66;;;25.72;100.00
23321;BME280;33376;51.306;4.752;2023-06-05T10:59:34;101604.09;;;25.51;100.00
23321;BME280;33376;51.306;4.752;2023-06-05T11:07:14;101578.91;;;26.17;100.00
23321;BME280;33376;51.306;4.752;2023-06-05T11:12:25;101343.16;;;26.96;100.00
23321;BME280;33376;51.306;4.752;2023-06-05T11:14:50;101397.03;;;27.47;100.00
23321;BME280;33376;51.306;4.752;2023-06-05T11:17:25;101360.75;;;26.85;100.00
23321;BME280;33376;51.306;4.752;2023-06-05T11:19:50;101327.63;;;27.35;100.00
23321;BME280;33376;51.306;4.752;2023-06-05T11:22:16;101404.19;;;26.39;100.00
23321;BME280;33376;51.306;4.752;2023-06-05T11:24:41;101429.44;;;26.87;100.00
23321;BME280;33376;51.306;4.752;2023-06-05T11:27:06;101442.53;;;26.84;100.00
23321;BME280;33376;51.306;4.752;2023-06-05T11:29:34;101405.84;;;26.56;100.00
23321;BME280;33376;51.306;4.752;2023-06-05T11:32:00;101376.25;;;27.15;100.00
23321;BME280;33376;51.306;4.752;2023-06-05T11:34:25;101509.28;;;25.40;100.00
23321;BME280;33376;51.306;4.752;2023-06-05T11:36:52;101439.19;;;26.42;100.00
23321;BME280;33376;51.306;4.752;2023-06-05T11:39:18;101445.59;;;26.81;100.00
23321;BME280;33376;51.306;4.752;2023-06-05T11:41:44;101415.41;;;27.06;100.00
23321;BME280;33376;51.306;4.752;2023-06-05T11:44:10;101397.16;;;26.76;100.00
23321;BME280;33376;51.306;4.752;2023-06-05T11:46:36;101436.50;;;26.18;100.00
23321;BME280;33376;51.306;4.752;2023-06-05T11:49:02;101390.34;;;27.19;100.00
23321;BME280;33376;51.306;4.752;2023-06-05T11:51:34;101408.75;;;26.54;100.00
23321;BME280;33376;51.306;4.752;2023-06-05T11:54:00;101404.69;;;26.42;100.00
23321;BME280;33376;51.306;4.752;2023-06-05T11:56:26;101382.22;;;26.72;100.00
23321;BME280;33376;51.306;4.752;2023-06-05T11:58:52;101362.28;;;26.80;100.00
23321;BME280;33376;51.306;4.752;2023-06-05T12:01:18;101373.50;;;26.85;100.00
23321;BME280;33376;51.306;4.752;2023-06-05T12:03:47;101384.28;;;27.09;100.00
23321;BME280;33376;51.306;4.752;2023-06-05T12:06:13;101336.97;;;27.41;100.00
23321;BME280;33376;51.306;4.752;2023-06-05T12:08:38;101383.28;;;27.02;100.00
23321;BME280;33376;51.306;4.752;2023-06-05T12:11:18;101276.59;;;28.40;100.00
23321;BME280;33376;51.306;4.752;2023-06-05T12:13:51;101434.13;;;27.09;100.00
23321;BME280;33376;51.306;4.752;2023-06-05T12:16:17;101402.09;;;27.27;100.00
23321;BME280;33376;51.306;4.752;2023-06-05T12:18:43;101398.38;;;26.50;100.00
23321;BME280;33376;51.306;4.752;2023-06-05T12:21:18;101283.69;;;27.61;100.00
23321;BME280;33376;51.306;4.752;2023-06-05T12:23:43;101383.78;;;27.05;100.00
23321;BME280;33376;51.306;4.752;2023-06-05T12:26:09;101333.09;;;28.03;100.00
23321;BME280;33376;51.306;4.752;2023-06-05T12:28:34;101356.59;;;28.04;100.00
23321;BME280;33376;51.306;4.752;2023-06-05T12:30:59;101413.78;;;26.89;100.00
23321;BME280;33376;51.306;4.752;2023-06-05T12:33:25;101346.91;;;26.95;100.00
23321;BME280;33376;51.306;4.752;2023-06-05T12:36:03;101434.09;;;26.55;100.00
23321;BME280;33376;51.306;4.752;2023-06-05T12:38:28;101398.59;;;26.32;100.00
23321;BME280;33376;51.306;4.752;2023-06-05T12:40:53;101433.25;;;25.40;100.00
23321;BME280;33376;51.306;4.752;2023-06-05T12:43:19;101490.94;;;25.09;100.00
23321;BME280;33376;51.306;4.752;2023-06-05T12:45:44;101457.16;;;25.94;100.00
23321;BME280;33376;51.306;4.752;2023-06-05T12:48:09;101476.91;;;26.05;100.00
23321;BME280;33376;51.306;4.752;2023-06-05T12:50:35;101479.00;;;25.61;100.00
23321;BME280;33376;51.306;4.752;2023-06-05T12:53:00;101506.63;;;25.48;100.00
23321;BME280;33376;51.306;4.752;2023-06-05T12:55:27;101484.00;;;25.06;100.00
23321;BME280;33376;51.306;4.752;2023-06-05T12:57:52;101506.81;;;24.96;100.00
23321;BME280;33376;51.306;4.752;2023-06-05T13:00:17;101551.25;;;25.20;100.00
23321;BME280;33376;51.306;4.752;2023-06-05T13:02:43;101552.53;;;25.67;100.00
23321;BME280;33376;51.306;4.752;2023-06-05T13:05:10;101500.56;;;25.62;100.00